Time;durP1;ratioP1;P1;durP2;ratioP2;P2;SDS_P1;SDS_P2;PMS_P1;PMS_P2;Temp;Humidity;BMP_temperature;BMP_pressure;BME280_temperature;BME280_humidity;BME280_pressure;Samples;Min_cycle;Max_cycle;Signal;HPM_P1;HPM_P2
2022/12/21 00:01:24;;;;;;;17.25;8.05;;;11.40;99.90;;;;;;5033163;28;20448;-79
2022/12/21 00:03:53;;;;;;;16.58;8.65;;;11.30;99.90;;;;;;5033272;28;20483;-80
2022/12/21 00:06:18;;;;;;;18.13;9.18;;;11.40;99.90;;;;;;5033160;28;20021;-78
2022/12/21 00:08:46;;;;;;;18.10;8.10;;;11.40;99.90;;;;;;5032298;28;20032;-77
2022/12/21 00:11:13;;;;;;;14.45;8.63;;;11.30;99.90;;;;;;5033701;28;20018;-80
2022/12/21 00:13:40;;;;;;;16.07;8.73;;;11.30;99.90;;;;;;5032817;28;20044;-77
2022/12/21 00:16:09;;;;;;;17.10;8.70;;;11.40;99.90;;;;;;5031544;28;20038;-78
2022/12/21 00:18:36;;;;;;;14.43;8.65;;;11.30;99.90;;;;;;5031877;28;20065;-78
2022/12/21 00:21:09;;;;;;;18.40;9.45;;;11.30;99.90;;;;;;5031898;28;20026;-78
2022/12/21 00:23:34;;;;;;;14.43;8.63;;;11.20;99.90;;;;;;5033345;28;20033;-78
2022/12/21 00:26:03;;;;;;;15.55;8.60;;;11.30;99.90;;;;;;5033439;28;20039;-77
2022/12/21 00:28:29;;;;;;;15.60;8.63;;;11.20;99.90;;;;;;5032600;28;20037;-77
2022/12/21 00:30:55;;;;;;;15.85;8.95;;;11.20;99.90;;;;;;5032679;28;20170;-78
2022/12/21 00:33:21;;;;;;;15.10;8.65;;;11.30;99.90;;;;;;5032476;28;20049;-77
2022/12/21 00:35:49;;;;;;;14.27;8.60;;;11.20;99.90;;;;;;5032469;28;20080;-79
2022/12/21 00:38:14;;;;;;;17.15;9.10;;;11.20;99.90;;;;;;5033421;28;20328;-76
2022/12/21 00:40:40;;;;;;;17.23;9.45;;;11.20;99.90;;;;;;5032938;28;20158;-80
2022/12/21 00:43:06;;;;;;;16.88;9.63;;;11.20;99.90;;;;;;5031692;28;20038;-78
2022/12/21 00:45:31;;;;;;;15.95;9.25;;;11.30;99.90;;;;;;5031106;28;20026;-77
2022/12/21 00:47:57;;;;;;;16.55;9.05;;;11.20;99.90;;;;;;5032208;28;20021;-78
2022/12/21 00:50:23;;;;;;;15.52;9.57;;;11.20;99.90;;;;;;5032711;28;20017;-79
2022/12/21 00:52:49;;;;;;;17.65;10.38;;;11.20;99.90;;;;;;5032751;28;20091;-79
2022/12/21 00:55:14;;;;;;;15.88;9.82;;;11.20;99.90;;;;;;5030992;28;20033;-78
2022/12/21 00:57:40;;;;;;;17.95;10.40;;;11.10;99.90;;;;;;5031185;28;20037;-78
2022/12/21 01:00:06;;;;;;;18.15;9.27;;;11.10;99.90;;;;;;5031290;28;20183;-79
2022/12/21 01:02:35;;;;;;;17.15;10.25;;;11.20;99.90;;;;;;5031112;28;20052;-80
2022/12/21 01:05:01;;;;;;;18.60;10.13;;;11.10;99.90;;;;;;5032594;28;20025;-80
2022/12/21 01:07:27;;;;;;;21.88;11.20;;;11.10;99.90;;;;;;5031067;28;20037;-79
2022/12/21 01:09:53;;;;;;;17.65;10.13;;;11.10;99.90;;;;;;5031780;28;20324;-78
2022/12/21 01:12:19;;;;;;;18.83;10.38;;;11.10;99.90;;;;;;5031926;28;20407;-78
2022/12/21 01:14:44;;;;;;;17.90;9.75;;;11.10;99.90;;;;;;5031987;28;20522;-79
2022/12/21 01:17:10;;;;;;;16.42;10.35;;;11.20;99.90;;;;;;5032628;28;20402;-76
2022/12/21 01:19:36;;;;;;;14.73;9.93;;;11.20;99.90;;;;;;5032050;28;20026;-78
2022/12/21 01:22:02;;;;;;;15.38;9.90;;;11.00;99.90;;;;;;5032165;28;20079;-78
2022/12/21 01:24:27;;;;;;;15.95;10.35;;;11.30;99.90;;;;;;5031493;28;20372;-78
2022/12/21 01:26:53;;;;;;;17.60;10.48;;;11.30;99.90;;;;;;5031287;28;20139;-78
2022/12/21 01:29:19;;;;;;;18.00;10.57;;;11.20;99.90;;;;;;5031091;28;20040;-78
2022/12/21 01:31:45;;;;;;;13.20;9.70;;;11.10;99.90;;;;;;5031589;28;20045;-78
2022/12/21 01:34:10;;;;;;;16.70;10.95;;;11.10;99.90;;;;;;5031632;28;20395;-78
2022/12/21 01:36:36;;;;;;;17.17;10.07;;;11.10;99.90;;;;;;5031374;28;20125;-78
2022/12/21 01:39:02;;;;;;;17.75;11.25;;;11.00;99.90;;;;;;5031432;28;20477;-78
2022/12/21 01:41:28;;;;;;;19.73;10.85;;;11.00;99.90;;;;;;5031037;28;20037;-78
2022/12/21 01:43:59;;;;;;;16.13;11.27;;;11.10;99.90;;;;;;5031040;28;20332;-77
2022/12/21 01:46:36;;;;;;;15.85;10.68;;;11.10;99.90;;;;;;5031703;28;20128;-79
2022/12/21 01:49:04;;;;;;;19.42;10.35;;;11.10;99.90;;;;;;5030415;28;20359;-79
2022/12/21 01:51:32;;;;;;;16.10;10.68;;;11.20;99.90;;;;;;5031331;28;20030;-78
2022/12/21 01:54:01;;;;;;;;;;;11.30;99.90;;;;;;5030544;28;20041;-78
2022/12/21 01:56:34;;;;;;;18.38;11.27;;;11.20;99.90;;;;;;5031040;28;19919;-78
2022/12/21 01:59:09;;;;;;;17.83;10.77;;;11.10;99.90;;;;;;5030378;28;20229;-78
2022/12/21 02:01:35;;;;;;;19.08;11.43;;;11.20;99.90;;;;;;5031156;28;20099;-78
2022/12/21 02:04:01;;;;;;;18.25;11.52;;;11.10;99.90;;;;;;5031211;28;20026;-78
2022/12/21 02:06:36;;;;;;;16.02;10.65;;;11.20;99.90;;;;;;5031130;28;20363;-78
2022/12/21 02:09:02;;;;;;;21.25;11.75;;;11.20;99.90;;;;;;5031546;28;20399;-78
2022/12/21 02:11:28;;;;;;;18.17;11.77;;;11.10;99.90;;;;;;5029875;28;20477;-80
2022/12/21 02:13:54;;;;;;;16.50;10.82;;;11.50;99.90;;;;;;5031501;28;20108;-79
2022/12/21 02:16:49;;;;;;;17.88;11.18;;;11.20;99.90;;;;;;5030987;28;20364;-81
2022/12/21 02:19:52;;;;;;;18.02;11.35;;;11.20;99.90;;;;;;5022240;28;20053;-79
2022/12/21 02:22:40;;;;;;;17.73;11.25;;;11.20;99.90;;;;;;5029753;28;20340;-78
2022/12/21 02:25:27;;;;;;;18.23;11.23;;;11.10;99.90;;;;;;5030775;28;20375;-78
2022/12/21 02:28:14;;;;;;;16.53;11.03;;;11.20;99.90;;;;;;5030831;28;20367;-79
2022/12/21 02:30:56;;;;;;;18.05;11.25;;;11.10;99.90;;;;;;5030646;28;20033;-78
2022/12/21 02:33:36;;;;;;;16.55;10.93;;;11.10;99.90;;;;;;5030691;28;20041;-78
2022/12/21 02:36:30;;;;;;;20.35;11.98;;;11.10;99.90;;;;;;5019360;28;20038;-78
2022/12/21 02:39:25;;;;;;;18.88;11.70;;;11.10;99.90;;;;;;5010150;28;20037;-78
2022/12/21 02:45:34;;;;;;;17.48;11.38;;;11.20;99.90;;;;;;5011116;28;20041;-77
2022/12/21 02:48:28;;;;;;;19.88;12.25;;;11.10;99.90;;;;;;5010151;28;20030;-78
2022/12/21 02:50:59;;;;;;;16.90;11.52;;;11.10;99.90;;;;;;5010258;28;20059;-78
2022/12/21 02:53:34;;;;;;;15.18;11.18;;;11.10;99.90;;;;;;5010700;28;20264;-78
2022/12/21 02:56:00;;;;;;;18.50;12.65;;;11.10;99.90;;;;;;5009681;28;20125;-79
2022/12/21 02:58:26;;;;;;;20.35;12.68;;;11.10;99.90;;;;;;5009595;28;20109;-79
2022/12/21 03:00:52;;;;;;;18.83;13.40;;;11.10;99.90;;;;;;5010862;28;20125;-77
2022/12/21 03:03:49;;;;;;;20.60;12.57;;;11.10;99.90;;;;;;5010939;28;20474;-79
2022/12/21 03:06:26;;;;;;;19.40;11.40;;;11.20;99.90;;;;;;5010757;28;20112;-78
2022/12/21 03:08:52;;;;;;;18.92;12.50;;;11.10;99.90;;;;;;5010575;28;20416;-78
2022/12/21 03:11:18;;;;;;;19.20;12.30;;;11.10;99.90;;;;;;5011424;28;20229;-78
2022/12/21 03:14:05;;;;;;;19.80;13.07;;;11.10;99.90;;;;;;5010576;28;20046;-77
2022/12/21 03:16:50;;;;;;;22.05;12.60;;;11.10;99.90;;;;;;5009417;28;20030;-77
2022/12/21 03:19:37;;;;;;;20.15;12.60;;;11.20;99.90;;;;;;5009498;28;20468;-77
2022/12/21 03:22:33;;;;;;;19.23;13.70;;;11.20;99.90;;;;;;5019888;28;20042;-76
2022/12/21 03:25:01;;;;;;;23.13;13.52;;;11.10;99.90;;;;;;5010401;28;20399;-77
2022/12/21 03:27:32;;;;;;;20.25;12.93;;;11.10;99.90;;;;;;5010301;28;20045;-78
2022/12/21 03:30:11;;;;;;;23.05;13.52;;;11.10;99.90;;;;;;5010391;28;20029;-77
2022/12/21 03:32:46;;;;;;;19.48;12.68;;;11.00;99.90;;;;;;5010511;28;20026;-78
2022/12/21 03:35:34;;;;;;;20.55;12.85;;;11.00;99.90;;;;;;5009943;28;20034;-77
2022/12/21 03:38:03;;;;;;;21.35;14.25;;;11.10;99.90;;;;;;5010383;28;20092;-76
2022/12/21 03:40:34;;;;;;;20.90;13.43;;;11.20;99.90;;;;;;5009088;28;20029;-76
2022/12/21 03:43:06;;;;;;;23.85;14.25;;;11.10;99.90;;;;;;5010423;28;20031;-76
2022/12/21 03:45:41;;;;;;;22.52;15.05;;;11.10;99.90;;;;;;5010208;28;20047;-77
2022/12/21 03:48:35;;;;;;;24.00;14.18;;;11.30;99.90;;;;;;5010251;28;20081;-78
2022/12/21 03:51:06;;;;;;;22.63;13.95;;;11.10;99.90;;;;;;5010207;28;20241;-79
2022/12/21 03:53:47;;;;;;;23.60;14.63;;;11.00;99.90;;;;;;5013058;28;20026;-78
2022/12/21 03:56:20;;;;;;;23.60;14.90;;;11.00;99.90;;;;;;5014135;28;20030;-78
2022/12/21 03:58:47;;;;;;;25.80;16.13;;;11.10;99.90;;;;;;5013729;28;20033;-79
2022/12/21 04:01:41;;;;;;;23.88;14.50;;;11.10;99.90;;;;;;5013525;28;20104;-77
2022/12/21 04:04:29;;;;;;;22.75;15.05;;;11.10;99.90;;;;;;5013744;28;20468;-79
2022/12/21 04:06:59;;;;;;;25.48;15.38;;;11.00;99.90;;;;;;5012411;28;20038;-79
2022/12/21 04:09:25;;;;;;;24.88;15.05;;;11.00;99.90;;;;;;5013252;28;20026;-79
2022/12/21 04:14:35;;;;;;;25.52;15.43;;;10.90;99.90;;;;;;5013139;28;20185;-78
2022/12/21 04:17:02;;;;;;;28.55;15.35;;;11.00;99.90;;;;;;5013101;28;20125;-76
2022/12/21 04:28:06;;;;;;;24.63;15.70;;;10.90;99.90;;;;;;5013437;28;20069;-76
2022/12/21 04:30:26;;;;;;;23.40;14.70;;;11.00;99.90;;;;;;5013344;28;20375;-77
2022/12/21 04:32:52;;;;;;;24.98;15.35;;;10.90;99.90;;;;;;5013051;28;20030;-78
2022/12/21 04:35:18;;;;;;;26.15;15.05;;;11.10;99.90;;;;;;5013357;28;20036;-78
2022/12/21 04:37:43;;;;;;;27.05;14.75;;;10.90;99.90;;;;;;5013038;28;20375;-78
2022/12/21 04:40:09;;;;;;;25.80;14.65;;;10.90;99.90;;;;;;5012991;28;20030;-78
2022/12/21 04:42:37;;;;;;;21.52;13.68;;;10.90;99.90;;;;;;5012687;28;20034;-78
2022/12/21 04:45:03;;;;;;;23.95;15.20;;;10.90;99.90;;;;;;5012814;28;20041;-77
2022/12/21 04:47:28;;;;;;;21.88;14.18;;;11.00;99.90;;;;;;5011631;28;20025;-78
2022/12/21 04:49:54;;;;;;;23.35;14.63;;;10.90;99.90;;;;;;5013002;28;20026;-77
2022/12/21 04:52:20;;;;;;;22.20;14.45;;;11.00;99.90;;;;;;5012572;28;20064;-78
2022/12/21 04:54:46;;;;;;;23.00;14.35;;;11.00;99.90;;;;;;5012521;28;20128;-77
2022/12/21 04:57:12;;;;;;;24.70;14.85;;;11.10;99.90;;;;;;5012658;28;20091;-78
2022/12/21 04:59:38;;;;;;;22.08;14.55;;;11.10;99.90;;;;;;5011594;28;20621;-78
2022/12/21 05:02:04;;;;;;;22.20;14.55;;;11.00;99.90;;;;;;5011239;28;20321;-79
2022/12/21 05:04:29;;;;;;;22.80;14.45;;;11.10;99.90;;;;;;5012518;28;20030;-79
2022/12/21 05:06:55;;;;;;;23.70;14.95;;;11.00;99.90;;;;;;5011516;28;20104;-79
2022/12/21 05:09:22;;;;;;;21.65;13.52;;;11.00;99.90;;;;;;5012480;28;20030;-79
2022/12/21 05:11:48;;;;;;;23.98;14.55;;;11.00;99.90;;;;;;5011252;28;20032;-78
2022/12/21 05:14:14;;;;;;;23.63;13.82;;;11.00;99.90;;;;;;5012559;28;20041;-79
2022/12/21 05:16:40;;;;;;;24.42;15.48;;;11.00;99.90;;;;;;5010887;28;20053;-79
2022/12/21 05:19:08;;;;;;;26.73;14.27;;;10.90;99.90;;;;;;5012091;28;20041;-79
2022/12/21 05:21:34;;;;;;;23.45;14.95;;;10.90;99.90;;;;;;5011072;28;20041;-80
2022/12/21 05:23:59;;;;;;;21.75;13.73;;;11.00;99.90;;;;;;5011924;28;20030;-79
2022/12/21 05:26:25;;;;;;;25.35;15.40;;;11.00;99.90;;;;;;5011216;28;20029;-79
2022/12/21 05:28:51;;;;;;;23.48;15.35;;;11.00;99.90;;;;;;5012343;28;20026;-78
2022/12/21 05:31:16;;;;;;;20.92;13.95;;;11.00;99.90;;;;;;5012012;28;20052;-77
2022/12/21 05:33:42;;;;;;;21.60;13.93;;;11.00;99.90;;;;;;5010679;28;20034;-78
2022/12/21 05:36:13;;;;;;;22.50;14.38;;;11.20;99.90;;;;;;5012098;28;20033;-77
2022/12/21 05:38:39;;;;;;;22.90;15.15;;;11.00;99.90;;;;;;5010741;28;20360;-77
2022/12/21 05:41:05;;;;;;;22.98;14.45;;;11.00;99.90;;;;;;5012250;28;20037;-76
2022/12/21 05:43:31;;;;;;;21.98;13.68;;;11.10;99.90;;;;;;5011860;28;20096;-76
2022/12/21 05:46:03;;;;;;;19.77;13.30;;;11.10;99.90;;;;;;5020389;28;20041;-77
2022/12/21 05:48:29;;;;;;;21.55;13.50;;;11.00;99.90;;;;;;5011982;28;20087;-76
2022/12/21 05:50:54;;;;;;;23.48;14.63;;;11.00;99.90;;;;;;5011542;28;20486;-78
2022/12/21 05:53:20;;;;;;;19.80;13.02;;;11.00;99.90;;;;;;5012304;28;20049;-77
2022/12/21 05:55:46;;;;;;;21.55;14.07;;;11.10;99.90;;;;;;5011825;28;20038;-78
2022/12/21 05:58:13;;;;;;;22.35;14.55;;;11.10;99.90;;;;;;5011680;28;20034;-77
2022/12/21 06:00:40;;;;;;;24.13;15.23;;;11.00;99.90;;;;;;5011433;28;20026;-77
2022/12/21 06:03:06;;;;;;;24.83;14.95;;;10.90;99.90;;;;;;5011935;28;20034;-77
2022/12/21 06:05:34;;;;;;;26.13;15.75;;;10.90;99.90;;;;;;5011293;28;20052;-77
2022/12/21 06:08:00;;;;;;;25.75;16.65;;;10.90;99.90;;;;;;5012152;28;20034;-76
2022/12/21 06:10:26;;;;;;;24.92;15.38;;;10.90;99.90;;;;;;5023874;28;20034;-77
2022/12/21 06:12:52;;;;;;;25.38;15.50;;;10.90;99.90;;;;;;5011206;28;20061;-77
2022/12/21 06:15:18;;;;;;;25.10;16.60;;;10.90;99.90;;;;;;5011410;28;20506;-78
2022/12/21 06:17:43;;;;;;;27.23;16.90;;;11.20;99.90;;;;;;5010985;28;20376;-76
2022/12/21 06:20:09;;;;;;;25.33;16.27;;;11.10;99.90;;;;;;5011774;28;20499;-76
2022/12/21 06:22:35;;;;;;;24.60;14.35;;;10.90;99.90;;;;;;5011327;28;20380;-78
2022/12/21 06:25:02;;;;;;;24.75;15.38;;;10.90;99.90;;;;;;5020367;28;20040;-77
2022/12/21 06:27:28;;;;;;;24.63;14.80;;;11.00;99.90;;;;;;5011006;28;20034;-77
2022/12/21 06:29:53;;;;;;;26.27;15.40;;;10.90;99.90;;;;;;5010165;28;20570;-76
2022/12/21 06:32:19;;;;;;;23.33;14.52;;;11.00;99.90;;;;;;5011417;28;20034;-77
2022/12/21 06:34:45;;;;;;;23.45;14.68;;;11.00;99.90;;;;;;5010977;28;20057;-76
2022/12/21 06:37:10;;;;;;;26.08;14.65;;;11.00;99.90;;;;;;5009837;28;20033;-75
2022/12/21 06:39:36;;;;;;;24.27;14.27;;;10.90;99.90;;;;;;5010970;28;20464;-77
2022/12/21 06:42:03;;;;;;;24.20;14.50;;;10.90;99.90;;;;;;5011592;28;20109;-76
2022/12/21 06:44:28;;;;;;;20.90;12.90;;;10.90;99.90;;;;;;5009697;28;20391;-78
2022/12/21 06:46:54;;;;;;;20.40;13.35;;;10.90;99.90;;;;;;5010344;28;20092;-79
2022/12/21 06:49:20;;;;;;;22.30;13.27;;;10.90;99.90;;;;;;5012599;28;20096;-80
2022/12/21 06:51:46;;;;;;;23.23;14.85;;;11.00;99.90;;;;;;5030567;28;20038;-79
2022/12/21 06:54:11;;;;;;;23.83;14.23;;;10.90;99.90;;;;;;5030313;28;20305;-78
2022/12/21 06:56:37;;;;;;;22.67;13.40;;;10.90;99.90;;;;;;5029041;28;20462;-78
2022/12/21 06:59:03;;;;;;;24.08;12.63;;;10.90;99.90;;;;;;5030761;28;20033;-79
2022/12/21 07:01:32;;;;;;;20.50;13.02;;;11.10;99.90;;;;;;5029384;28;20642;-81
2022/12/21 07:03:58;;;;;;;22.30;13.52;;;10.90;99.90;;;;;;5030672;28;20029;-79
2022/12/21 07:06:25;;;;;;;19.70;12.88;;;11.00;99.90;;;;;;5029539;28;20029;-76
2022/12/21 07:08:51;;;;;;;20.58;13.35;;;11.00;99.90;;;;;;5030421;28;20388;-77
2022/12/21 07:11:19;;;;;;;23.02;13.82;;;11.10;99.90;;;;;;5031144;28;20447;-76
2022/12/21 07:13:46;;;;;;;22.05;13.20;;;11.00;99.90;;;;;;5028822;28;20395;-76
2022/12/21 07:16:13;;;;;;;23.27;13.90;;;10.90;99.90;;;;;;5030233;28;20478;-76
2022/12/21 07:18:40;;;;;;;22.60;14.02;;;10.90;99.90;;;;;;5030127;28;20113;-74
2022/12/21 07:21:09;;;;;;;23.50;13.88;;;10.90;99.90;;;;;;5030451;28;20030;-74
2022/12/21 07:23:36;;;;;;;24.88;14.93;;;10.90;99.90;;;;;;5029967;28;20018;-76
2022/12/21 07:26:06;;;;;;;27.00;14.43;;;10.90;99.90;;;;;;5033920;28;20029;-73
2022/12/21 07:28:32;;;;;;;23.23;13.93;;;10.90;99.90;;;;;;5033995;28;20030;-74
2022/12/21 07:31:09;;;;;;;26.42;15.02;;;10.90;99.90;;;;;;5033783;28;20029;-75
2022/12/21 07:33:36;;;;;;;23.05;14.07;;;10.90;99.90;;;;;;5034257;28;20033;-78
2022/12/21 07:36:03;;;;;;;25.88;14.85;;;10.90;99.90;;;;;;5032719;28;20033;-75
2022/12/21 07:38:30;;;;;;;32.97;17.88;;;10.90;99.90;;;;;;5033921;28;20330;-74
2022/12/21 07:41:00;;;;;;;25.63;14.73;;;10.90;99.90;;;;;;5034437;28;20118;-77
2022/12/21 07:43:27;;;;;;;29.90;17.00;;;11.00;99.90;;;;;;5032803;28;20502;-80
2022/12/21 07:45:53;;;;;;;24.98;14.82;;;10.90;99.90;;;;;;5032984;28;20120;-78
2022/12/21 07:48:19;;;;;;;41.17;21.85;;;10.90;99.90;;;;;;5033692;28;20116;-76
2022/12/21 07:50:49;;;;;;;28.35;16.33;;;11.00;99.90;;;;;;5033536;28;20580;-75
2022/12/21 07:53:16;;;;;;;30.58;16.92;;;10.90;99.90;;;;;;5033956;28;20128;-78
2022/12/21 07:55:44;;;;;;;28.58;16.17;;;11.00;99.90;;;;;;5033351;28;20426;-78
2022/12/21 07:58:10;;;;;;;31.08;16.52;;;11.00;99.90;;;;;;5033437;28;20276;-79
2022/12/21 08:00:37;;;;;;;29.08;16.38;;;11.00;99.90;;;;;;5033456;28;20065;-78
2022/12/21 08:03:03;;;;;;;47.47;23.65;;;11.00;99.90;;;;;;5032228;28;20036;-79
2022/12/21 08:05:29;;;;;;;28.17;15.68;;;11.10;99.90;;;;;;5032328;28;20033;-80
2022/12/21 08:07:57;;;;;;;25.30;15.15;;;11.00;99.90;;;;;;5033912;28;20022;-78
2022/12/21 08:10:23;;;;;;;28.73;15.82;;;11.00;99.90;;;;;;5033591;28;20030;-84
2022/12/21 08:12:49;;;;;;;28.35;16.25;;;11.00;99.90;;;;;;5033213;28;20030;-77
2022/12/21 08:15:15;;;;;;;25.63;15.52;;;11.00;99.90;;;;;;5033061;28;20138;-74
2022/12/21 08:17:40;;;;;;;30.15;16.35;;;10.90;99.90;;;;;;5031958;28;20052;-74
2022/12/21 08:20:07;;;;;;;28.77;16.45;;;10.90;99.90;;;;;;5032749;28;20079;-74
2022/12/21 08:22:32;;;;;;;35.85;18.13;;;11.00;99.90;;;;;;5031778;28;20065;-74
2022/12/21 08:24:58;;;;;;;29.05;16.67;;;11.10;99.90;;;;;;5032994;28;20644;-76
2022/12/21 08:27:24;;;;;;;29.55;17.00;;;11.00;99.90;;;;;;5033023;28;20029;-73
2022/12/21 08:29:49;;;;;;;32.20;15.52;;;11.00;99.90;;;;;;5032642;28;20029;-74
2022/12/21 08:32:15;;;;;;;29.95;16.67;;;11.00;99.90;;;;;;5033556;28;20057;-75
2022/12/21 08:34:41;;;;;;;28.00;15.98;;;11.00;99.90;;;;;;5033225;28;20202;-74
2022/12/21 08:37:07;;;;;;;29.40;17.13;;;11.20;99.90;;;;;;5031718;28;20459;-75
2022/12/21 08:39:32;;;;;;;31.67;17.58;;;11.10;99.90;;;;;;5032706;28;20499;-75
2022/12/21 08:41:58;;;;;;;27.75;15.80;;;11.00;99.90;;;;;;5032647;28;20144;-73
2022/12/21 08:44:24;;;;;;;32.60;17.23;;;11.00;99.90;;;;;;5033059;28;20068;-74
2022/12/21 08:46:49;;;;;;;34.63;17.73;;;10.90;99.90;;;;;;5032454;28;20135;-74
2022/12/21 08:49:15;;;;;;;33.78;17.85;;;10.90;99.90;;;;;;5032675;28;20040;-75
2022/12/21 08:51:40;;;;;;;30.58;16.73;;;10.90;99.90;;;;;;5032610;28;20072;-73
2022/12/21 08:54:07;;;;;;;28.55;16.40;;;10.90;99.90;;;;;;5032440;28;20175;-75
2022/12/21 08:56:34;;;;;;;32.35;17.38;;;10.90;99.90;;;;;;5032261;28;20037;-73
2022/12/21 08:59:07;;;;;;;33.03;17.58;;;10.90;99.90;;;;;;5032876;28;20021;-74
2022/12/21 09:01:34;;;;;;;30.80;17.13;;;11.00;99.90;;;;;;5032290;28;20036;-72
2022/12/21 09:04:01;;;;;;;37.42;19.88;;;11.00;99.90;;;;;;5032379;28;20357;-77
2022/12/21 09:06:27;;;;;;;31.38;17.48;;;11.00;99.90;;;;;;5032441;28;20025;-74
2022/12/21 09:08:53;;;;;;;32.22;17.35;;;11.00;99.90;;;;;;5032403;28;20038;-76
2022/12/21 09:11:22;;;;;;;31.77;17.20;;;11.00;99.90;;;;;;5031625;28;20018;-74
2022/12/21 09:13:48;;;;;;;31.55;16.88;;;11.10;99.90;;;;;;5031950;28;20419;-74
2022/12/21 09:16:16;;;;;;;27.88;16.05;;;11.10;99.90;;;;;;5032076;28;20029;-75
2022/12/21 09:18:43;;;;;;;33.65;16.73;;;11.10;99.90;;;;;;5030946;28;20056;-75
2022/12/21 09:21:09;;;;;;;28.65;16.70;;;11.10;99.90;;;;;;5030856;28;20117;-75
2022/12/21 09:23:35;;;;;;;30.17;16.50;;;11.10;99.90;;;;;;5031890;28;20455;-76
2022/12/21 09:26:03;;;;;;;31.15;16.65;;;11.10;99.90;;;;;;5032499;28;20060;-76
2022/12/21 09:28:29;;;;;;;30.15;16.60;;;11.10;99.90;;;;;;5031782;28;20061;-74
2022/12/21 09:30:55;;;;;;;33.03;17.10;;;11.10;99.90;;;;;;5031668;28;20486;-77
2022/12/21 09:33:23;;;;;;;30.98;15.93;;;11.10;99.90;;;;;;5031791;28;20145;-76
2022/12/21 09:35:52;;;;;;;;;;;11.20;99.90;;;;;;5032288;28;20037;-77
2022/12/21 09:38:18;;;;;;;30.33;15.98;;;11.20;99.90;;;;;;5032284;28;19905;-77
2022/12/21 09:40:45;;;;;;;33.45;17.38;;;11.20;99.90;;;;;;5030392;28;20345;-79
2022/12/21 09:43:23;;;;;;;30.90;17.92;;;11.20;99.90;;;;;;5030318;28;20095;-76
2022/12/21 09:46:05;;;;;;;30.35;15.57;;;11.20;99.90;;;;;;5031559;28;20033;-78
2022/12/21 09:48:45;;;;;;;25.83;15.05;;;11.20;99.90;;;;;;5031167;28;20026;-77
2022/12/21 09:51:19;;;;;;;27.95;15.52;;;11.20;99.90;;;;;;5031904;28;20028;-85
2022/12/21 09:53:58;;;;;;;35.95;20.30;;;11.20;99.90;;;;;;5031491;28;20091;-77
2022/12/21 09:56:26;;;;;;;97.50;48.88;;;11.30;99.90;;;;;;5031891;28;20026;-75
2022/12/21 09:58:54;;;;;;;30.92;18.25;;;11.30;99.90;;;;;;5032255;28;20487;-77
2022/12/21 10:01:28;;;;;;;25.88;14.57;;;11.30;99.90;;;;;;5031205;28;20048;-77
2022/12/21 10:04:09;;;;;;;27.52;14.90;;;11.30;99.90;;;;;;5030354;28;20105;-78
2022/12/21 10:07:05;;;;;;;28.45;15.70;;;11.30;99.90;;;;;;5031416;28;20026;-77
2022/12/21 10:09:55;;;;;;;29.50;14.98;;;11.30;99.90;;;;;;5031072;28;20029;-80
2022/12/21 10:12:40;;;;;;;27.88;15.48;;;11.30;99.90;;;;;;5030958;28;20032;-76
2022/12/21 10:15:37;;;;;;;29.83;16.55;;;11.40;99.90;;;;;;5029560;28;20475;-78
2022/12/21 10:18:27;;;;;;;26.08;14.52;;;11.40;99.90;;;;;;5031094;28;20037;-78
2022/12/21 10:20:59;;;;;;;26.10;13.50;;;11.40;99.90;;;;;;5031083;28;20021;-79
2022/12/21 10:23:35;;;;;;;25.20;14.13;;;11.40;99.90;;;;;;5031077;28;20021;-75
2022/12/21 10:26:05;;;;;;;22.30;13.25;;;11.40;99.90;;;;;;5031411;28;20061;-76
2022/12/21 10:28:45;;;;;;;22.08;12.52;;;11.30;99.90;;;;;;5029803;28;20037;-77
2022/12/21 10:31:34;;;;;;;23.73;12.00;;;11.40;99.90;;;;;;5031441;28;20034;-80
2022/12/21 10:34:01;;;;;;;23.05;12.52;;;11.40;99.90;;;;;;5029713;28;20050;-83
2022/12/21 10:36:37;;;;;;;20.65;12.82;;;11.50;99.90;;;;;;5030681;28;20037;-79
2022/12/21 10:39:04;;;;;;;23.45;13.85;;;11.30;99.90;;;;;;5030840;28;20025;-82
2022/12/21 10:41:34;;;;;;;22.05;13.38;;;11.40;99.90;;;;;;5030735;28;20451;-81
2022/12/21 10:44:01;;;;;;;24.15;13.07;;;11.40;99.90;;;;;;5031301;28;20444;-82
2022/12/21 10:46:35;;;;;;;24.73;13.77;;;11.40;99.90;;;;;;5031117;28;20116;-82
2022/12/21 10:49:19;;;;;;;22.35;13.10;;;11.30;99.90;;;;;;5030962;28;20022;-76
2022/12/21 10:51:46;;;;;;;24.77;12.98;;;11.30;99.90;;;;;;5030475;28;20041;-77
2022/12/21 10:54:12;;;;;;;20.52;12.43;;;11.30;99.90;;;;;;5030741;28;20044;-79
2022/12/21 10:56:45;;;;;;;20.92;12.25;;;11.30;99.90;;;;;;5029681;28;20418;-80
2022/12/21 10:59:31;;;;;;;24.67;14.90;;;11.30;99.90;;;;;;5031199;28;20024;-79
2022/12/21 11:01:57;;;;;;;29.17;16.45;;;11.30;99.90;;;;;;5034510;28;20032;-79
2022/12/21 11:04:23;;;;;;;21.42;12.20;;;11.40;99.90;;;;;;5035549;28;20033;-77
2022/12/21 11:06:58;;;;;;;25.05;13.40;;;11.40;99.90;;;;;;5034169;28;20032;-77
2022/12/21 11:09:37;;;;;;;22.98;13.88;;;11.40;99.90;;;;;;5034036;28;20042;-78
2022/12/21 11:12:23;;;;;;;22.70;13.45;;;11.40;99.90;;;;;;5035569;28;20041;-79
2022/12/21 11:14:50;;;;;;;22.05;12.10;;;11.40;99.90;;;;;;5035211;28;20033;-81
2022/12/21 11:17:18;;;;;;;21.80;11.73;;;11.40;99.90;;;;;;5037699;28;20032;-81
2022/12/21 11:19:44;;;;;;;21.85;13.35;;;11.60;99.90;;;;;;5036320;28;20112;-84
2022/12/21 11:22:14;;;;;;;25.90;13.85;;;11.40;99.90;;;;;;5035405;28;20030;-79
2022/12/21 11:24:43;;;;;;;21.40;12.80;;;11.40;99.90;;;;;;5033825;28;20037;-76
2022/12/21 11:27:11;;;;;;;21.95;11.68;;;11.50;99.90;;;;;;5034321;28;20050;-75
2022/12/21 11:29:57;;;;;;;25.35;12.45;;;11.40;99.90;;;;;;5034198;28;20317;-75
2022/12/21 11:32:23;;;;;;;20.13;11.32;;;11.40;99.90;;;;;;5034167;28;20038;-76
2022/12/21 11:34:57;;;;;;;18.77;11.10;;;11.40;99.90;;;;;;5033151;28;20087;-76
2022/12/21 11:37:38;;;;;;;19.48;12.15;;;11.50;99.90;;;;;;5034003;28;20033;-76
2022/12/21 11:40:24;;;;;;;20.52;12.10;;;11.40;99.90;;;;;;5033857;28;20040;-76
2022/12/21 11:42:59;;;;;;;25.10;12.00;;;11.40;99.90;;;;;;5032736;28;20034;-77
2022/12/21 11:45:39;;;;;;;20.35;12.05;;;11.50;99.90;;;;;;5034092;28;20044;-74
2022/12/21 11:48:17;;;;;;;18.95;10.93;;;11.50;99.90;;;;;;5033885;28;20033;-75
2022/12/21 11:51:16;;;;;;;20.38;12.05;;;11.50;99.90;;;;;;5033923;28;20033;-75
2022/12/21 11:53:54;;;;;;;19.23;11.30;;;11.60;99.90;;;;;;5033596;28;20068;-75
2022/12/21 11:56:50;;;;;;;22.52;13.45;;;11.80;99.90;;;;;;5034615;28;20033;-75
2022/12/21 11:59:27;;;;;;;25.52;13.02;;;11.90;99.90;;;;;;5033512;28;20033;-77
2022/12/21 12:02:08;;;;;;;22.00;12.38;;;12.00;99.90;;;;;;5034086;28;20029;-75
2022/12/21 12:04:55;;;;;;;19.05;11.25;;;11.90;99.90;;;;;;5033546;28;20024;-75
2022/12/21 12:07:43;;;;;;;22.70;12.40;;;12.00;99.90;;;;;;5033562;28;20053;-75
2022/12/21 12:10:19;;;;;;;18.80;11.25;;;12.00;99.90;;;;;;5032177;28;20438;-77
2022/12/21 12:13:05;;;;;;;24.80;11.38;;;12.10;99.90;;;;;;5033408;28;20118;-77
2022/12/21 12:16:13;;;;;;;19.38;11.07;;;12.10;99.90;;;;;;5032253;28;20045;-74
2022/12/21 12:18:42;;;;;;;18.33;10.93;;;12.10;99.90;;;;;;5033187;28;20040;-79
2022/12/21 12:21:28;;;;;;;20.52;11.23;;;12.00;99.90;;;;;;5033221;28;20431;-75
2022/12/21 12:24:09;;;;;;;18.00;9.75;;;12.00;99.90;;;;;;5032211;28;20053;-77
2022/12/21 12:27:04;;;;;;;17.38;11.00;;;12.10;99.90;;;;;;5032895;28;20040;-75
2022/12/21 12:29:30;;;;;;;22.05;10.95;;;12.00;99.90;;;;;;5032850;28;20021;-76
2022/12/21 12:32:25;;;;;;;17.73;8.70;;;12.10;99.90;;;;;;5032101;28;20362;-77
2022/12/21 12:35:06;;;;;;;13.45;8.23;;;12.10;99.90;;;;;;5033139;28;20490;-74
2022/12/21 12:37:38;;;;;;;19.45;8.98;;;12.20;99.90;;;;;;5032565;28;20463;-76
2022/12/21 12:40:59;;;;;;;15.02;8.55;;;12.00;99.90;;;;;;5032982;28;20064;-74
2022/12/21 12:43:33;;;;;;;19.10;8.45;;;12.10;99.90;;;;;;5010374;28;20134;-76
2022/12/21 12:46:08;;;;;;;59.10;10.52;;;12.10;99.90;;;;;;5029137;28;20037;-75
2022/12/21 12:48:39;;;;;;;35.03;10.38;;;12.10;99.90;;;;;;5032605;28;20075;-75
2022/12/21 12:51:11;;;;;;;37.60;16.25;;;12.10;99.90;;;;;;5032672;28;20022;-73
2022/12/21 12:53:53;;;;;;;17.33;8.77;;;12.20;99.90;;;;;;5032661;28;20064;-78
2022/12/21 12:56:45;;;;;;;11.38;7.25;;;12.10;99.90;;;;;;5032902;28;20032;-76
2022/12/21 12:59:40;;;;;;;12.20;6.55;;;12.10;99.90;;;;;;5032614;28;20106;-76
2022/12/21 13:02:13;;;;;;;11.77;7.40;;;12.10;99.90;;;;;;5031332;28;20038;-75
2022/12/21 13:05:24;;;;;;;12.77;7.63;;;12.10;99.90;;;;;;5031287;28;20423;-78